Time;durP1;ratioP1;P1;durP2;ratioP2;P2;SDS_P1;SDS_P2;PMS_P1;PMS_P2;Temp;Humidity;BMP_temperature;BMP_pressure;BME280_temperature;BME280_humidity;BME280_pressure;Samples;Min_cycle;Max_cycle;Signal;HPM_P1;HPM_P2
2021/12/01 00:01:35;;;;;;;12.00;2.72;;;10.80;99.90;;;;;;5030936;28;20056;-67
2021/12/01 00:04:03;;;;;;;8.80;3.45;;;10.80;99.90;;;;;;5050974;28;20056;-66
2021/12/01 00:06:30;;;;;;;8.98;2.80;;;10.80;99.90;;;;;;5050479;28;20091;-66
2021/12/01 00:08:57;;;;;;;16.33;3.70;;;10.80;99.90;;;;;;5033513;28;20041;-69
2021/12/01 00:11:24;;;;;;;10.35;2.85;;;10.80;99.90;;;;;;5051387;28;20492;-66
2021/12/01 00:13:51;;;;;;;9.27;2.65;;;10.80;99.90;;;;;;5050488;28;20088;-67
2021/12/01 00:16:18;;;;;;;9.07;2.63;;;10.80;99.90;;;;;;5050382;28;20067;-65
2021/12/01 00:18:45;;;;;;;7.20;2.15;;;10.80;99.90;;;;;;5050333;28;20102;-67
2021/12/01 00:21:12;;;;;;;9.07;2.40;;;10.80;99.90;;;;;;5051561;28;20048;-66
2021/12/01 00:23:38;;;;;;;7.93;2.17;;;10.80;99.90;;;;;;5050607;28;20053;-65
2021/12/01 00:26:05;;;;;;;9.50;2.92;;;10.80;99.90;;;;;;5030984;28;20061;-66
2021/12/01 00:28:32;;;;;;;8.07;1.92;;;10.80;99.90;;;;;;5049378;28;20059;-65
2021/12/01 00:34:21;;;;;;;7.63;1.85;;;10.80;99.90;;;;;;5051092;28;20090;-67
2021/12/01 00:37:06;;;;;;;7.47;2.15;;;10.80;99.90;;;;;;5047332;28;20510;-66
2021/12/01 00:39:33;;;;;;;5.03;1.73;;;10.80;99.90;;;;;;5049979;28;20492;-67
2021/12/01 00:42:01;;;;;;;5.38;1.92;;;10.80;99.90;;;;;;5050191;28;20092;-65
2021/12/01 00:44:33;;;;;;;6.03;1.80;;;10.80;99.90;;;;;;5050027;28;20127;-66
2021/12/01 00:49:32;;;;;;;5.90;1.70;;;10.80;99.90;;;;;;5049751;28;20118;-68
2021/12/01 00:51:59;;;;;;;4.38;1.73;;;10.80;99.90;;;;;;5044870;28;20455;-66
2021/12/01 00:54:26;;;;;;;5.22;1.50;;;10.90;99.90;;;;;;5049694;28;20053;-71
2021/12/01 00:56:53;;;;;;;4.93;1.65;;;10.90;99.90;;;;;;5050819;28;20080;-66
2021/12/01 00:59:20;;;;;;;3.00;1.35;;;10.90;99.90;;;;;;5049457;28;20114;-67
2021/12/01 01:01:47;;;;;;;4.78;1.20;;;10.90;99.90;;;;;;5050807;28;20461;-65
2021/12/01 01:04:16;;;;;;;4.40;1.52;;;10.90;99.90;;;;;;5048819;28;20044;-66
2021/12/01 01:06:43;;;;;;;8.13;1.40;;;11.00;99.90;;;;;;5049266;28;20139;-67
2021/12/01 01:09:11;;;;;;;3.97;1.13;;;11.00;99.90;;;;;;5049422;28;20509;-67
2021/12/01 01:17:13;;;;;;;2.05;1.10;;;11.00;99.90;;;;;;5033836;28;20206;-72
2021/12/01 01:19:40;;;;;;;2.58;0.93;;;11.00;99.90;;;;;;5049197;28;20603;-67
2021/12/01 01:22:07;;;;;;;2.83;1.35;;;11.00;99.90;;;;;;5049954;28;20049;-65
2021/12/01 01:24:34;;;;;;;5.82;1.00;;;11.00;99.90;;;;;;5043593;28;20053;-72
2021/12/01 01:27:01;;;;;;;2.72;1.30;;;11.00;99.90;;;;;;5067786;28;20132;-65
2021/12/01 01:29:33;;;;;;;2.78;0.80;;;11.00;99.90;;;;;;5049233;28;20048;-67
2021/12/01 01:32:02;;;;;;;2.03;1.15;;;11.00;99.90;;;;;;5042149;28;20114;-66
2021/12/01 01:34:31;;;;;;;2.25;1.00;;;11.00;99.90;;;;;;5049215;28;20045;-70
2021/12/01 01:36:58;;;;;;;2.13;0.77;;;11.00;99.90;;;;;;5026809;28;20049;-66
2021/12/01 01:39:25;;;;;;;2.92;1.00;;;11.10;99.90;;;;;;5047475;28;20052;-66
2021/12/01 01:41:54;;;;;;;5.65;0.93;;;11.10;99.90;;;;;;5032635;28;20061;-66
2021/12/01 01:44:21;;;;;;;2.22;1.33;;;11.10;99.90;;;;;;5049234;28;20090;-67
2021/12/01 01:46:49;;;;;;;4.47;1.10;;;11.10;99.90;;;;;;5048979;28;20060;-70
2021/12/01 01:49:20;;;;;;;2.38;1.10;;;11.10;99.90;;;;;;5049039;28;20089;-67
2021/12/01 01:51:47;;;;;;;2.42;0.90;;;11.10;99.90;;;;;;5049980;28;20374;-73
2021/12/01 01:54:14;;;;;;;3.88;0.88;;;11.10;99.90;;;;;;5048486;28;20137;-75
2021/12/01 01:56:41;;;;;;;1.75;0.88;;;11.10;99.90;;;;;;5050436;28;20110;-67
2021/12/01 01:59:09;;;;;;;2.92;1.33;;;11.00;99.90;;;;;;5030168;28;20088;-67
2021/12/01 02:04:07;;;;;;;2.50;0.98;;;11.00;99.90;;;;;;5048342;28;20056;-67
2021/12/01 02:06:36;;;;;;;3.15;0.90;;;11.00;99.90;;;;;;5048371;28;20139;-70
2021/12/01 02:09:03;;;;;;;5.38;1.13;;;11.00;99.90;;;;;;5047198;28;20250;-67
2021/12/01 02:11:30;;;;;;;2.72;1.00;;;11.00;99.90;;;;;;5043552;28;20416;-66
2021/12/01 02:13:57;;;;;;;3.63;1.05;;;11.00;99.90;;;;;;5048821;28;20041;-66
2021/12/01 02:16:24;;;;;;;3.17;1.10;;;11.00;99.90;;;;;;5049290;28;20140;-66
2021/12/01 02:18:51;;;;;;;4.00;1.65;;;11.00;99.90;;;;;;5046742;28;20136;-66
2021/12/01 02:21:28;;;;;;;4.15;1.35;;;11.00;99.90;;;;;;5048450;28;20049;-66
2021/12/01 02:23:57;;;;;;;3.17;1.08;;;11.00;99.90;;;;;;5048819;28;20044;-65
2021/12/01 02:26:24;;;;;;;1.65;0.93;;;11.00;99.90;;;;;;5048956;28;20103;-67
2021/12/01 02:28:56;;;;;;;2.92;0.90;;;11.00;99.90;;;;;;5048237;28;20079;-67
2021/12/01 02:31:25;;;;;;;4.13;1.48;;;10.90;99.90;;;;;;5048645;28;20057;-66
2021/12/01 02:33:53;;;;;;;2.80;1.38;;;10.90;99.90;;;;;;5049600;28;20065;-70
2021/12/01 02:36:21;;;;;;;6.70;1.40;;;10.90;99.90;;;;;;5048121;28;20559;-67
2021/12/01 02:38:48;;;;;;;6.07;1.20;;;10.80;99.90;;;;;;5049819;28;20103;-67
2021/12/01 02:41:16;;;;;;;2.53;1.20;;;10.70;99.90;;;;;;5029714;28;20049;-67
2021/12/01 02:43:44;;;;;;;2.20;1.13;;;10.70;99.90;;;;;;5048434;28;20119;-68
2021/12/01 02:46:11;;;;;;;3.63;1.10;;;10.70;99.90;;;;;;5048328;28;20441;-67
2021/12/01 02:48:42;;;;;;;3.58;1.15;;;10.70;99.90;;;;;;5048906;28;20083;-67
2021/12/01 02:51:10;;;;;;;5.50;1.70;;;10.70;99.90;;;;;;5032467;28;20331;-65
2021/12/01 02:53:39;;;;;;;3.38;1.63;;;10.70;99.90;;;;;;5028211;28;20478;-69
2021/12/01 02:56:06;;;;;;;3.97;1.50;;;10.70;99.90;;;;;;5032039;28;20560;-67
2021/12/01 02:58:38;;;;;;;4.45;1.40;;;10.60;99.90;;;;;;5015059;28;20048;-66
2021/12/01 03:01:10;;;;;;;5.95;1.35;;;10.60;99.90;;;;;;5049528;28;20374;-66
2021/12/01 03:03:38;;;;;;;3.30;1.73;;;10.50;99.90;;;;;;5032530;28;20049;-67
2021/12/01 03:06:06;;;;;;;4.72;1.58;;;10.40;99.90;;;;;;5048056;28;20195;-74
2021/12/01 03:08:34;;;;;;;3.83;1.48;;;10.40;99.90;;;;;;5012046;28;20052;-68
2021/12/01 03:11:01;;;;;;;6.07;1.63;;;10.30;99.90;;;;;;5029128;28;20473;-68
2021/12/01 03:13:28;;;;;;;4.57;1.70;;;10.30;99.90;;;;;;5048016;28;20082;-66
2021/12/01 03:15:55;;;;;;;6.72;1.40;;;10.30;99.90;;;;;;5044918;28;20120;-67
2021/12/01 03:18:22;;;;;;;3.97;1.70;;;10.20;99.90;;;;;;5033626;28;20056;-67
2021/12/01 03:20:50;;;;;;;3.30;1.48;;;10.20;99.90;;;;;;5053612;28;20106;-66
2021/12/01 03:23:17;;;;;;;5.45;1.40;;;10.20;99.90;;;;;;5043917;28;20076;-65
2021/12/01 03:25:45;;;;;;;5.13;1.40;;;10.20;99.90;;;;;;5052219;28;20138;-71
2021/12/01 03:28:12;;;;;;;3.40;1.20;;;10.20;99.90;;;;;;5053631;28;20044;-65
2021/12/01 03:30:39;;;;;;;4.15;1.70;;;10.20;99.90;;;;;;5053613;28;20115;-68
2021/12/01 03:33:08;;;;;;;4.57;1.42;;;10.20;99.90;;;;;;5035537;28;20099;-68
2021/12/01 03:35:36;;;;;;;9.77;2.15;;;10.10;99.90;;;;;;5051703;28;21754;-67
2021/12/01 03:38:03;;;;;;;4.40;1.33;;;10.10;99.90;;;;;;5035078;28;20069;-67
2021/12/01 03:40:31;;;;;;;4.03;1.60;;;10.10;99.90;;;;;;5051806;28;20447;-68
2021/12/01 03:42:58;;;;;;;6.10;1.88;;;10.10;99.90;;;;;;5051102;28;20469;-68
2021/12/01 03:45:25;;;;;;;4.00;1.90;;;10.10;99.90;;;;;;5035716;28;20040;-68
2021/12/01 03:47:53;;;;;;;6.68;1.65;;;10.10;99.90;;;;;;5035652;28;20392;-67
2021/12/01 03:50:20;;;;;;;3.50;2.75;;;10.10;99.90;;;;;;5053275;28;20132;-67
2021/12/01 03:52:47;;;;;;;7.25;2.05;;;10.10;99.90;;;;;;5050838;28;20095;-67
2021/12/01 03:55:14;;;;;;;6.50;2.92;;;10.10;99.90;;;;;;5051583;28;20061;-67
2021/12/01 03:57:41;;;;;;;4.70;2.38;;;10.00;99.90;;;;;;5034994;28;20064;-69
2021/12/01 04:00:10;;;;;;;6.25;2.60;;;10.10;99.90;;;;;;5018051;28;20172;-66
2021/12/01 04:02:36;;;;;;;9.23;2.67;;;10.10;99.90;;;;;;5050869;28;20501;-65
2021/12/01 04:05:04;;;;;;;8.48;3.22;;;10.10;99.90;;;;;;5051028;28;20128;-67
2021/12/01 04:07:32;;;;;;;5.15;2.40;;;10.20;99.90;;;;;;5051093;28;20535;-66
2021/12/01 04:09:59;;;;;;;11.73;3.53;;;10.20;99.90;;;;;;5051211;28;20072;-66
2021/12/01 04:12:27;;;;;;;8.55;3.05;;;10.20;99.90;;;;;;5051018;28;20080;-66
2021/12/01 04:14:54;;;;;;;5.97;2.95;;;10.20;99.90;;;;;;5034905;28;20060;-66
2021/12/01 04:17:21;;;;;;;6.65;2.55;;;10.20;99.90;;;;;;5052423;28;20153;-66
2021/12/01 04:19:48;;;;;;;10.32;2.97;;;10.20;99.90;;;;;;5050946;28;20438;-66
2021/12/01 04:22:15;;;;;;;7.97;2.33;;;10.20;99.90;;;;;;5050498;28;20135;-70
2021/12/01 04:24:42;;;;;;;7.20;2.80;;;10.10;99.90;;;;;;5050841;28;20061;-67
2021/12/01 04:27:10;;;;;;;9.55;3.47;;;10.20;99.90;;;;;;5052834;28;20456;-66
2021/12/01 04:29:37;;;;;;;7.63;2.80;;;10.20;99.90;;;;;;5031117;28;20493;-67
2021/12/01 04:32:05;;;;;;;7.18;3.10;;;10.20;99.90;;;;;;5051934;28;20049;-67
2021/12/01 04:34:32;;;;;;;7.25;2.63;;;10.30;99.90;;;;;;5051844;28;20126;-66
2021/12/01 04:36:59;;;;;;;4.18;2.40;;;10.30;99.90;;;;;;5052268;28;20040;-67
2021/12/01 04:39:26;;;;;;;7.15;2.50;;;10.30;99.90;;;;;;5030453;28;20061;-74
2021/12/01 04:41:58;;;;;;;6.32;2.88;;;10.30;99.90;;;;;;5048717;28;20049;-66
2021/12/01 04:44:26;;;;;;;9.63;2.67;;;10.40;99.90;;;;;;5050649;28;20128;-68
2021/12/01 04:46:56;;;;;;;8.30;2.60;;;10.40;99.90;;;;;;5034834;28;20045;-66
2021/12/01 04:49:24;;;;;;;7.10;2.72;;;10.40;99.90;;;;;;5033482;28;20056;-66
2021/12/01 04:51:55;;;;;;;8.23;2.35;;;10.50;99.90;;;;;;5033581;28;20095;-68
2021/12/01 04:54:23;;;;;;;5.82;2.53;;;10.50;99.90;;;;;;5050749;28;20096;-67
2021/12/01 04:56:50;;;;;;;5.82;2.15;;;10.50;99.90;;;;;;5051404;28;20542;-67
2021/12/01 04:59:17;;;;;;;9.98;2.53;;;10.50;99.90;;;;;;5049774;28;20087;-67
2021/12/01 05:01:44;;;;;;;9.65;2.58;;;10.50;99.90;;;;;;5049975;28;20450;-74
2021/12/01 05:04:12;;;;;;;7.85;2.67;;;10.50;99.90;;;;;;5049932;28;20041;-68
2021/12/01 05:06:39;;;;;;;9.60;2.53;;;10.50;99.90;;;;;;5041784;28;20132;-67
2021/12/01 05:09:07;;;;;;;15.93;3.33;;;10.50;99.90;;;;;;5050655;28;20117;-66
2021/12/01 05:11:34;;;;;;;6.38;2.10;;;10.50;99.90;;;;;;5017711;28;20398;-67
2021/12/01 05:14:10;;;;;;;4.95;2.17;;;10.40;99.90;;;;;;5049988;28;20080;-67
2021/12/01 05:16:39;;;;;;;6.00;2.33;;;10.50;99.90;;;;;;5049958;28;20048;-66
2021/12/01 05:19:06;;;;;;;4.18;1.88;;;10.50;99.90;;;;;;5047617;28;20374;-67
2021/12/01 05:21:34;;;;;;;4.15;1.67;;;10.50;99.90;;;;;;5036012;28;20118;-66
2021/12/01 05:24:01;;;;;;;3.90;1.38;;;10.50;99.90;;;;;;5049678;28;20052;-67
2021/12/01 05:26:28;;;;;;;3.85;1.50;;;10.40;99.90;;;;;;5051022;28;20044;-66
2021/12/01 05:28:55;;;;;;;3.20;1.25;;;10.40;99.90;;;;;;5050449;28;20149;-66
2021/12/01 05:31:22;;;;;;;3.08;1.10;;;10.50;99.90;;;;;;5049184;28;20552;-65
2021/12/01 05:33:49;;;;;;;3.85;1.20;;;10.40;99.90;;;;;;5049952;28;20060;-66
2021/12/01 05:36:16;;;;;;;4.20;1.95;;;10.40;99.90;;;;;;5049541;28;20072;-65
2021/12/01 05:38:44;;;;;;;1.85;0.93;;;10.40;99.90;;;;;;5033090;28;20439;-66
2021/12/01 05:41:11;;;;;;;3.00;1.10;;;10.40;99.90;;;;;;5050427;28;20542;-65
2021/12/01 05:43:38;;;;;;;5.07;1.30;;;10.30;99.70;;;;;;5033001;28;20048;-66
2021/12/01 05:46:05;;;;;;;5.00;1.48;;;10.30;99.80;;;;;;5050860;28;20080;-66
2021/12/01 05:48:32;;;;;;;1.75;0.80;;;10.30;99.50;;;;;;5050792;28;20044;-66
2021/12/01 05:50:59;;;;;;;3.22;0.90;;;10.30;98.70;;;;;;5049522;28;20416;-66
2021/12/01 05:53:26;;;;;;;2.72;0.90;;;10.20;98.30;;;;;;5047037;28;20049;-66
2021/12/01 05:55:54;;;;;;;1.90;0.90;;;10.20;98.70;;;;;;5037345;28;20128;-68
2021/12/01 05:58:21;;;;;;;2.88;1.65;;;10.20;99.20;;;;;;5048932;28;20135;-67
2021/12/01 06:00:48;;;;;;;2.30;1.10;;;10.20;97.60;;;;;;5048838;28;20075;-66
2021/12/01 06:03:15;;;;;;;2.38;1.10;;;10.20;97.50;;;;;;5051269;28;20148;-66
2021/12/01 06:05:44;;;;;;;1.77;0.80;;;10.20;97.80;;;;;;5034100;28;20389;-68
2021/12/01 06:08:11;;;;;;;4.47;1.17;;;10.20;98.70;;;;;;5052114;28;20044;-66
2021/12/01 06:10:41;;;;;;;1.52;0.95;;;10.20;98.40;;;;;;5048173;28;20095;-66
2021/12/01 06:13:09;;;;;;;3.42;1.10;;;10.10;97.80;;;;;;5030704;28;20083;-66
2021/12/01 06:15:37;;;;;;;1.65;0.75;;;10.10;98.00;;;;;;5032161;28;20060;-67
2021/12/01 06:18:04;;;;;;;2.47;0.80;;;10.10;97.00;;;;;;5047760;28;20143;-72
2021/12/01 06:20:31;;;;;;;1.77;0.85;;;10.10;97.30;;;;;;5048953;28;20106;-66
2021/12/01 06:22:58;;;;;;;1.80;0.82;;;10.10;97.00;;;;;;5052018;28;20165;-66
2021/12/01 06:25:26;;;;;;;1.23;0.70;;;10.00;96.20;;;;;;5047883;28;20095;-66
2021/12/01 06:27:54;;;;;;;3.22;0.60;;;10.10;95.50;;;;;;5026417;28;20042;-67
2021/12/01 06:30:22;;;;;;;3.55;0.88;;;10.00;95.90;;;;;;5045407;28;20080;-66
2021/12/01 06:32:49;;;;;;;2.70;0.98;;;10.00;96.00;;;;;;5048573;28;20106;-67
2021/12/01 06:35:17;;;;;;;2.75;1.08;;;10.00;95.70;;;;;;5048844;28;20048;-69
2021/12/01 06:37:45;;;;;;;1.05;0.80;;;9.90;97.60;;;;;;5047326;28;20072;-68
2021/12/01 06:40:13;;;;;;;2.30;0.77;;;9.70;99.90;;;;;;5048330;28;20049;-67
2021/12/01 06:42:40;;;;;;;2.58;0.73;;;9.60;99.90;;;;;;5048113;28;20037;-66
2021/12/01 06:45:08;;;;;;;3.22;0.90;;;9.40;99.90;;;;;;5045830;28;20057;-66
2021/12/01 06:47:35;;;;;;;2.47;0.70;;;9.30;99.90;;;;;;5024013;28;20090;-66
2021/12/01 06:50:03;;;;;;;3.40;0.70;;;9.20;99.90;;;;;;5048012;28;20045;-67
2021/12/01 06:52:31;;;;;;;2.58;1.15;;;9.20;99.90;;;;;;5048044;28;20037;-66
2021/12/01 06:54:58;;;;;;;3.45;0.90;;;9.10;99.90;;;;;;5049293;28;20091;-67
2021/12/01 06:57:25;;;;;;;4.13;0.88;;;9.10;99.90;;;;;;5028145;28;20111;-65
2021/12/01 06:59:52;;;;;;;127.05;86.05;;;9.20;99.90;;;;;;5029614;28;20053;-67
2021/12/01 07:02:19;;;;;;;6.93;5.35;;;9.10;99.90;;;;;;5047952;28;20045;-65
2021/12/01 07:04:46;;;;;;;3.35;1.23;;;9.10;99.90;;;;;;5049197;28;20076;-67
2021/12/01 07:07:13;;;;;;;0.68;0.60;;;9.00;99.90;;;;;;5047446;28;20500;-65
2021/12/01 07:09:41;;;;;;;0.90;0.60;;;9.00;99.90;;;;;;5048314;28;20121;-64
2021/12/01 07:12:08;;;;;;;2.10;0.63;;;8.90;99.90;;;;;;5048725;28;20091;-71
2021/12/01 07:14:35;;;;;;;1.15;0.80;;;8.90;99.90;;;;;;5047981;28;20122;-66
2021/12/01 07:17:03;;;;;;;1.13;0.68;;;8.90;99.90;;;;;;5047866;28;20129;-68
2021/12/01 07:19:30;;;;;;;44.92;28.08;;;8.80;99.90;;;;;;5049937;28;20049;-67
2021/12/01 07:21:58;;;;;;;21.38;16.55;;;8.90;99.60;;;;;;5044800;28;20132;-66
2021/12/01 07:24:25;;;;;;;3.45;1.85;;;9.00;99.80;;;;;;5047162;28;20077;-65
2021/12/01 07:26:52;;;;;;;1.08;0.73;;;9.00;99.90;;;;;;5048098;28;20570;-66
2021/12/01 07:29:19;;;;;;;1.38;0.80;;;8.90;99.90;;;;;;5048686;28;20065;-66
2021/12/01 07:31:48;;;;;;;1.17;0.70;;;8.90;99.80;;;;;;5049459;28;20559;-67
2021/12/01 07:34:15;;;;;;;1.17;0.67;;;8.90;99.10;;;;;;5032321;28;20052;-68
2021/12/01 07:36:42;;;;;;;1.70;0.68;;;8.90;99.80;;;;;;5048681;28;20079;-67
2021/12/01 07:39:10;;;;;;;0.73;0.68;;;8.90;99.70;;;;;;5049503;28;20045;-67
2021/12/01 07:41:39;;;;;;;2.83;0.80;;;8.90;99.60;;;;;;5049703;28;20111;-67
2021/12/01 07:44:06;;;;;;;0.50;0.50;;;9.00;99.60;;;;;;5048222;28;20412;-67
2021/12/01 07:46:33;;;;;;;2.95;1.10;;;9.00;99.10;;;;;;5048673;28;20048;-66
2021/12/01 07:49:00;;;;;;;1.63;0.82;;;9.00;98.80;;;;;;5042582;28;20092;-66
2021/12/01 07:51:27;;;;;;;1.50;0.63;;;9.00;98.30;;;;;;5051303;28;20071;-66
2021/12/01 07:53:55;;;;;;;0.40;0.40;;;9.00;99.60;;;;;;5068642;28;20044;-65
2021/12/01 07:56:22;;;;;;;3.33;0.85;;;9.00;98.30;;;;;;5056298;28;20052;-65
2021/12/01 07:58:49;;;;;;;1.35;0.65;;;9.00;98.20;;;;;;5035278;28;20056;-65
2021/12/01 08:01:18;;;;;;;1.10;0.68;;;8.90;98.30;;;;;;5047768;28;20098;-65
2021/12/01 08:03:46;;;;;;;1.58;0.65;;;8.90;98.80;;;;;;5048820;28;20444;-68
2021/12/01 08:06:13;;;;;;;2.33;0.90;;;8.90;98.60;;;;;;5049666;28;20056;-66
2021/12/01 08:08:40;;;;;;;2.42;1.17;;;8.80;98.10;;;;;;5052916;28;20344;-66
2021/12/01 08:11:07;;;;;;;3.30;0.80;;;8.80;98.90;;;;;;5050264;28;20051;-66
2021/12/01 08:13:33;;;;;;;1.40;0.70;;;8.80;98.00;;;;;;5037353;28;20047;-66
2021/12/01 08:16:00;;;;;;;2.35;0.70;;;8.80;98.30;;;;;;5052322;28;20040;-66
2021/12/01 08:18:27;;;;;;;63.17;47.53;;;8.80;98.40;;;;;;5017604;28;20504;-67
2021/12/01 08:20:54;;;;;;;114.53;81.55;;;8.90;98.80;;;;;;5052613;28;20045;-66
2021/12/01 08:23:21;;;;;;;72.68;49.92;;;9.00;99.10;;;;;;5072249;28;20389;-65
2021/12/01 08:25:48;;;;;;;12.15;8.10;;;9.00;98.90;;;;;;5054846;28;20049;-66
2021/12/01 08:28:15;;;;;;;3.03;1.60;;;9.00;99.00;;;;;;5034659;28;20508;-72
2021/12/01 08:30:43;;;;;;;0.68;0.57;;;8.90;99.40;;;;;;5051175;28;20053;-67
2021/12/01 08:33:10;;;;;;;0.82;0.82;;;8.90;98.80;;;;;;5052920;28;20056;-68
2021/12/01 08:35:37;;;;;;;30.75;21.63;;;8.80;99.80;;;;;;5051361;28;20067;-68
2021/12/01 08:38:04;;;;;;;19.48;13.70;;;8.80;99.90;;;;;;5034458;28;20110;-67
2021/12/01 08:40:31;;;;;;;3.95;1.52;;;8.80;99.90;;;;;;5052579;28;20461;-66
2021/12/01 08:42:58;;;;;;;2.30;0.82;;;8.80;99.90;;;;;;5052311;28;20451;-68
2021/12/01 08:45:25;;;;;;;1.33;0.77;;;8.70;99.90;;;;;;5054389;28;20079;-64
2021/12/01 08:47:52;;;;;;;0.82;0.60;;;8.80;99.90;;;;;;5051882;28;20045;-67
2021/12/01 08:50:19;;;;;;;1.27;0.80;;;8.70;99.90;;;;;;5050717;28;20053;-66
2021/12/01 08:52:48;;;;;;;2.03;0.80;;;8.70;99.90;;;;;;5051661;28;20075;-65
2021/12/01 08:55:15;;;;;;;1.60;0.83;;;8.70;99.90;;;;;;5049642;28;20114;-66
2021/12/01 08:58:02;;;;;;;2.60;1.40;;;8.70;99.90;;;;;;5036700;28;20072;-74
2021/12/01 09:00:33;;;;;;;1.67;0.88;;;8.70;99.90;;;;;;5052266;28;20056;-72
2021/12/01 09:03:00;;;;;;;4.70;1.30;;;8.80;99.90;;;;;;5052018;28;20045;-70
2021/12/01 09:05:27;;;;;;;2.15;1.10;;;8.80;99.90;;;;;;5050267;28;20041;-70
2021/12/01 09:07:54;;;;;;;1.45;0.95;;;8.90;99.90;;;;;;5050437;28;20049;-74
2021/12/01 09:10:20;;;;;;;138.82;101.57;;;8.90;99.90;;;;;;5049420;28;20080;-65
2021/12/01 09:12:48;;;;;;;8.48;5.20;;;8.90;99.90;;;;;;5051393;28;20156;-66
2021/12/01 09:15:15;;;;;;;3.72;2.00;;;9.00;99.90;;;;;;5049724;28;20049;-68
2021/12/01 09:17:42;;;;;;;2.97;1.42;;;9.00;99.90;;;;;;5046712;28;20045;-71
2021/12/01 09:20:09;;;;;;;2.10;1.20;;;9.00;99.90;;;;;;5051860;28;20051;-67
2021/12/01 09:22:36;;;;;;;2.90;1.17;;;9.00;99.90;;;;;;5064822;28;20056;-67
2021/12/01 09:25:03;;;;;;;2.88;1.17;;;9.00;99.90;;;;;;5070281;28;20476;-74
2021/12/01 09:27:30;;;;;;;5.28;1.30;;;9.00;99.90;;;;;;5050811;28;20507;-64
2021/12/01 09:29:57;;;;;;;2.95;1.63;;;9.00;99.90;;;;;;5050375;28;20049;-65
2021/12/01 09:32:24;;;;;;;4.22;1.02;;;9.00;99.90;;;;;;5050018;28;20052;-66
2021/12/01 09:34:51;;;;;;;1.98;0.90;;;9.00;99.90;;;;;;5049733;28;20484;-66
2021/12/01 09:37:18;;;;;;;2.03;1.17;;;9.00;99.90;;;;;;5050631;28;20110;-67
2021/12/01 09:39:45;;;;;;;2.63;1.05;;;9.00;99.90;;;;;;5049962;28;20098;-67
2021/12/01 09:42:12;;;;;;;1.42;1.20;;;9.00;99.90;;;;;;5050818;28;20063;-67
2021/12/01 09:44:39;;;;;;;2.80;1.10;;;9.10;99.90;;;;;;5051444;28;20053;-67
2021/12/01 09:47:06;;;;;;;3.38;1.27;;;9.10;99.90;;;;;;5049596;28;20493;-69
2021/12/01 09:49:33;;;;;;;4.25;1.00;;;9.10;99.90;;;;;;5050244;28;20052;-67
2021/12/01 09:52:00;;;;;;;4.05;1.15;;;9.10;99.90;;;;;;5057757;28;20059;-67
2021/12/01 09:54:30;;;;;;;2.53;1.10;;;9.10;99.90;;;;;;5070890;28;20075;-67
2021/12/01 09:56:56;;;;;;;3.13;1.15;;;9.10;99.90;;;;;;5069563;28;20055;-67
2021/12/01 09:59:23;;;;;;;3.75;0.90;;;9.10;99.90;;;;;;5069269;28;20422;-68
2021/12/01 10:01:50;;;;;;;3.33;1.15;;;9.10;99.90;;;;;;5070908;28;20041;-67
2021/12/01 10:04:18;;;;;;;3.05;1.30;;;9.10;99.90;;;;;;5066914;28;20140;-68
2021/12/01 10:06:45;;;;;;;2.38;0.82;;;9.00;99.90;;;;;;5049271;28;20053;-68
2021/12/01 10:09:14;;;;;;;2.13;1.08;;;9.00;99.60;;;;;;5049310;28;20641;-67
2021/12/01 10:11:41;;;;;;;3.78;1.15;;;9.00;99.90;;;;;;5049445;28;20056;-67
2021/12/01 10:14:15;;;;;;;1.98;1.00;;;8.90;99.90;;;;;;5033233;28;20055;-67
2021/12/01 10:16:43;;;;;;;5.90;1.60;;;8.90;99.90;;;;;;5049583;28;20854;-67
2021/12/01 10:19:12;;;;;;;2.33;1.20;;;8.90;99.90;;;;;;5050959;28;20499;-67
2021/12/01 10:21:49;;;;;;;3.80;1.02;;;8.90;99.90;;;;;;5054687;28;20055;-69
2021/12/01 10:24:26;;;;;;;5.57;1.27;;;8.90;99.90;;;;;;5070269;28;20054;-68
2021/12/01 10:27:04;;;;;;;3.80;1.20;;;9.00;99.90;;;;;;5069032;28;20467;-68
2021/12/01 10:29:34;;;;;;;5.10;1.48;;;8.90;99.30;;;;;;5069412;28;20092;-67
2021/12/01 10:32:12;;;;;;;8.45;1.20;;;8.90;99.40;;;;;;5069355;28;20159;-67
2021/12/01 10:34:58;;;;;;;2.92;0.98;;;8.90;99.10;;;;;;5064155;28;20049;-67
2021/12/01 10:37:27;;;;;;;3.65;1.58;;;8.90;99.40;;;;;;5050626;28;20049;-67
2021/12/01 10:40:08;;;;;;;4.47;1.38;;;9.00;98.50;;;;;;5048737;28;20053;-67
2021/12/01 10:42:59;;;;;;;7.20;1.77;;;9.00;98.60;;;;;;5049127;28;20128;-67
2021/12/01 10:45:39;;;;;;;4.65;2.08;;;9.00;98.70;;;;;;5049296;28;20048;-67
2021/12/01 10:48:10;;;;;;;3.38;1.92;;;9.00;97.50;;;;;;5032328;28;20136;-68
2021/12/01 10:50:40;;;;;;;4.38;1.40;;;9.00;97.70;;;;;;5035178;28;20045;-68
2021/12/01 10:53:11;;;;;;;7.68;1.70;;;9.00;97.20;;;;;;5064860;28;20059;-67
2021/12/01 10:55:44;;;;;;;4.95;1.92;;;9.00;96.80;;;;;;5068278;28;20128;-67
2021/12/01 10:58:11;;;;;;;5.75;1.70;;;8.90;96.90;;;;;;5068655;28;20045;-67
2021/12/01 11:00:41;;;;;;;6.43;2.15;;;9.00;97.20;;;;;;5068831;28;20048;-70
2021/12/01 11:03:18;;;;;;;5.22;1.83;;;9.00;97.40;;;;;;5068347;28;20048;-69
2021/12/01 11:05:48;;;;;;;4.55;1.48;;;9.10;96.40;;;;;;5052779;28;20097;-69
2021/12/01 11:08:35;;;;;;;6.03;1.83;;;9.20;95.30;;;;;;5032105;28;20052;-69
2021/12/01 11:11:14;;;;;;;9.07;3.08;;;9.30;95.90;;;;;;5049830;28;20464;-69
2021/12/01 11:13:54;;;;;;;10.88;2.13;;;9.30;95.80;;;;;;5046488;28;20049;-68
2021/12/01 11:16:22;;;;;;;8.23;2.05;;;9.40;96.40;;;;;;5048065;28;20068;-73
2021/12/01 11:18:55;;;;;;;7.05;2.22;;;9.50;94.70;;;;;;5048599;28;20077;-69
2021/12/01 11:21:23;;;;;;;5.00;1.80;;;9.60;94.80;;;;;;5050351;28;20071;-69
2021/12/01 11:23:52;;;;;;;8.45;2.20;;;9.60;95.20;;;;;;5047630;28;20439;-69
2021/12/01 11:26:29;;;;;;;8.90;2.17;;;9.60;94.10;;;;;;5040675;28;20404;-77
2021/12/01 11:29:00;;;;;;;6.47;2.30;;;9.70;94.00;;;;;;5050962;28;20048;-69
2021/12/01 11:31:29;;;;;;;8.82;2.10;;;9.70;93.20;;;;;;5051445;28;20049;-68
2021/12/01 11:33:58;;;;;;;5.40;2.10;;;9.80;93.70;;;;;;5032726;28;20428;-69
2021/12/01 11:36:30;;;;;;;6.72;2.30;;;9.70;91.70;;;;;;5050046;28;20049;-69
2021/12/01 11:38:58;;;;;;;5.88;1.88;;;9.70;92.80;;;;;;5050488;28;20484;-66
2021/12/01 11:41:28;;;;;;;10.13;2.55;;;9.60;91.30;;;;;;5052607;28;20049;-68
2021/12/01 11:43:56;;;;;;;6.95;2.30;;;9.60;91.00;;;;;;5016263;28;20132;-68
2021/12/01 11:46:23;;;;;;;5.28;2.05;;;9.60;91.80;;;;;;5033859;28;20401;-46
2021/12/01 11:48:57;;;;;;;74.93;52.20;;;9.60;94.40;;;;;;5049495;28;20041;-46
2021/12/01 11:51:30;;;;;;;89.38;74.57;;;9.80;92.30;;;;;;5038523;28;20071;-52
2021/12/01 11:54:12;;;;;;;20.90;14.15;;;10.20;91.80;;;;;;5057046;28;20048;-69
2021/12/01 11:56:48;;;;;;;14.25;3.50;;;10.20;89.60;;;;;;5031010;28;20056;-70
2021/12/01 11:59:15;;;;;;;7.43;2.15;;;10.10;89.20;;;;;;5055525;28;20045;-65
2021/12/01 12:01:47;;;;;;;8.30;2.22;;;10.10;90.40;;;;;;5057311;28;20056;-66
2021/12/01 12:04:40;;;;;;;7.50;1.80;;;10.10;91.60;;;;;;5052231;28;20103;-66
2021/12/01 12:07:15;;;;;;;7.28;2.30;;;10.10;91.20;;;;;;5049620;28;20052;-67
2021/12/01 12:10:16;;;;;;;6.70;2.30;;;10.10;90.00;;;;;;5050750;28;20053;-67
2021/12/01 12:12:57;;;;;;;11.73;2.95;;;10.10;91.20;;;;;;5043614;28;20037;-72
2021/12/01 12:15:36;;;;;;;9.48;2.60;;;10.20;89.00;;;;;;5051935;28;20053;-70
2021/12/01 12:18:04;;;;;;;9.60;2.70;;;10.10;86.00;;;;;;5067175;28;20048;-71
2021/12/01 12:20:46;;;;;;;7.57;2.63;;;10.10;86.20;;;;;;5051942;28;20045;-69
2021/12/01 12:23:14;;;;;;;9.25;2.15;;;10.00;87.90;;;;;;5053424;28;20045;-70
2021/12/01 12:25:53;;;;;;;13.00;3.08;;;10.00;88.70;;;;;;5051047;28;20098;-71
2021/12/01 12:28:38;;;;;;;10.45;2.30;;;10.10;90.00;;;;;;5053096;28;20064;-66
2021/12/01 12:31:32;;;;;;;7.93;2.47;;;10.10;88.90;;;;;;5034731;28;20132;-67
2021/12/01 12:34:04;;;;;;;10.38;3.33;;;10.00;86.30;;;;;;5043053;28;20048;-66
2021/12/01 12:36:39;;;;;;;10.38;2.30;;;10.00;86.30;;;;;;5052529;28;20453;-65
2021/12/01 12:39:31;;;;;;;9.95;2.95;;;10.00;85.60;;;;;;5051252;28;20057;-65
2021/12/01 12:42:00;;;;;;;70.40;54.30;;;10.00;88.60;;;;;;5032369;28;20064;-67
2021/12/01 12:44:37;;;;;;;60.15;41.20;;;10.00;90.10;;;;;;5032618;28;20084;-66
2021/12/01 12:47:39;;;;;;;8.90;3.72;;;10.00;88.50;;;;;;5031471;28;20399;-67
2021/12/01 12:50:18;;;;;;;8.05;2.83;;;10.00;88.80;;;;;;5049995;28;20055;-67
2021/12/01 12:52:46;;;;;;;;;;;10.00;86.90;;;;;;5055169;28;20091;-65
2021/12/01 12:55:22;;;;;;;9.02;2.33;;;9.90;84.90;;;;;;5051017;28;20252;-66
2021/12/01 12:58:02;;;;;;;13.00;2.42;;;9.90;85.70;;;;;;5052401;28;20049;-66
2021/12/01 13:00:33;;;;;;;9.02;2.15;;;10.00;87.40;;;;;;5050476;28;20041;-66
2021/12/01 13:03:22;;;;;;;8.98;2.67;;;10.00;85.80;;;;;;5050765;28;20219;-66
2021/12/01 13:06:08;;;;;;;9.50;2.65;;;10.00;85.50;;;;;;5047532;28;20053;-66
2021/12/01 13:08:36;;;;;;;7.40;2.30;;;10.10;86.60;;;;;;5031973;28;20139;-64
2021/12/01 13:11:07;;;;;;;5.82;2.00;;;10.00;84.80;;;;;;5047887;28;20092;-66
2021/12/01 13:13:36;;;;;;;9.98;2.28;;;10.00;86.60;;;;;;5038351;28;20059;-65
2021/12/01 13:16:05;;;;;;;7.05;2.17;;;10.00;85.10;;;;;;5048399;28;20127;-65